createdAt,value
2019-05-10T00:01:22.555Z,17.05
2019-05-10T00:04:10.068Z,17.65
2019-05-10T00:06:57.671Z,17.65
2019-05-10T00:09:26.673Z,16.07
2019-05-10T00:11:57.958Z,16.00
2019-05-10T00:17:05.442Z,17.35
2019-05-10T00:22:03.800Z,16.05
2019-05-10T00:24:33.535Z,17.37
2019-05-10T00:27:03.197Z,16.97
2019-05-10T00:29:33.091Z,17.77
2019-05-10T00:32:02.685Z,16.85
2019-05-10T00:34:32.485Z,17.87
2019-05-10T00:37:03.583Z,18.87
2019-05-10T00:39:33.137Z,17.37
2019-05-10T00:42:02.860Z,16.52
2019-05-10T00:44:32.649Z,17.50
2019-05-10T00:47:02.217Z,16.35
2019-05-10T00:49:31.994Z,16.62
2019-05-10T00:52:01.628Z,16.40
2019-05-10T00:54:31.287Z,16.93
2019-05-10T00:57:00.839Z,18.10
2019-05-10T00:59:30.598Z,18.85
2019-05-10T01:02:00.302Z,18.35
2019-05-10T01:04:29.920Z,18.75
2019-05-10T01:06:59.558Z,17.35
2019-05-10T01:09:29.232Z,19.00
2019-05-10T01:11:58.855Z,17.98
2019-05-10T01:14:29.458Z,20.12
2019-05-10T01:16:59.043Z,20.02
2019-05-10T01:19:28.687Z,20.32
2019-05-10T01:21:58.345Z,20.90
2019-05-10T01:24:28.038Z,20.52
2019-05-10T01:26:57.745Z,19.67
2019-05-10T01:29:27.440Z,20.62
2019-05-10T01:31:57.057Z,18.73
2019-05-10T01:34:26.720Z,19.87
2019-05-10T01:36:56.345Z,19.50
2019-05-10T01:39:26.016Z,18.95
2019-05-10T01:41:55.574Z,19.60
2019-05-10T01:44:25.519Z,19.42
2019-05-10T01:46:55.209Z,18.75
2019-05-10T01:49:24.905Z,18.27
2019-05-10T01:51:54.594Z,19.15
2019-05-10T01:54:24.096Z,18.55
2019-05-10T01:56:54.688Z,19.55
2019-05-10T01:59:24.238Z,19.48
2019-05-10T02:01:53.847Z,20.00
2019-05-10T02:04:23.459Z,21.42
2019-05-10T02:06:53.032Z,20.68
2019-05-10T02:09:22.759Z,21.30
2019-05-10T02:11:52.453Z,20.70
2019-05-10T02:14:21.949Z,21.65
2019-05-10T02:16:51.488Z,21.93
2019-05-10T02:19:21.155Z,21.77
2019-05-10T02:21:50.656Z,24.98
2019-05-10T02:24:20.125Z,22.50
2019-05-10T02:26:49.809Z,24.47
2019-05-10T02:29:19.375Z,26.35
2019-05-10T02:31:48.976Z,24.32
2019-05-10T02:34:18.818Z,27.35
2019-05-10T02:36:48.424Z,27.55
2019-05-10T02:39:17.913Z,27.37
2019-05-10T02:41:47.571Z,27.67
2019-05-10T02:44:17.307Z,27.30
2019-05-10T02:46:46.914Z,26.02
2019-05-10T02:49:16.612Z,25.92
2019-05-10T02:51:46.214Z,27.37
2019-05-10T02:54:16.124Z,27.02
2019-05-10T02:56:46.909Z,27.35
2019-05-10T02:59:17.523Z,27.45
2019-05-10T03:01:47.251Z,27.00
2019-05-10T03:04:16.884Z,27.60
2019-05-10T03:06:48.089Z,29.42
2019-05-10T03:09:17.691Z,26.30
2019-05-10T03:11:49.484Z,26.73
2019-05-10T03:14:19.807Z,28.10
2019-05-10T03:16:51.251Z,26.17
2019-05-10T03:19:21.528Z,28.55
2019-05-10T03:22:00.153Z,29.42
2019-05-10T03:24:29.871Z,27.90
2019-05-10T03:26:59.578Z,27.05
2019-05-10T03:29:29.214Z,28.98
2019-05-10T03:31:58.831Z,26.50
2019-05-10T03:34:28.445Z,27.50
2019-05-10T03:36:58.148Z,27.58
2019-05-10T03:39:27.738Z,28.15
2019-05-10T03:41:57.379Z,27.80
2019-05-10T03:44:27.092Z,27.75
2019-05-10T03:46:56.817Z,30.00
2019-05-10T03:49:27.353Z,29.30
2019-05-10T03:51:57.687Z,29.00
2019-05-10T03:54:27.204Z,29.90
2019-05-10T03:57:12.264Z,28.23
2019-05-10T04:01:57.529Z,28.30
2019-05-10T04:04:27.275Z,27.40
2019-05-10T04:06:56.826Z,26.80
2019-05-10T04:09:26.391Z,27.25
2019-05-10T04:11:56.007Z,26.87
2019-05-10T04:14:25.574Z,26.60
2019-05-10T04:16:56.673Z,27.10
2019-05-10T04:19:26.353Z,27.98
2019-05-10T04:21:55.925Z,27.85
2019-05-10T04:24:25.430Z,28.07
2019-05-10T04:26:57.732Z,28.60
2019-05-10T04:29:27.361Z,29.42
2019-05-10T04:31:57.026Z,27.22
2019-05-10T04:34:26.661Z,27.50
2019-05-10T04:36:56.294Z,27.25
2019-05-10T04:39:25.810Z,25.90
2019-05-10T04:41:55.464Z,25.88
2019-05-10T04:44:24.987Z,26.55
2019-05-10T04:46:54.879Z,28.00
2019-05-10T04:49:24.633Z,26.93
2019-05-10T04:51:54.438Z,24.30
2019-05-10T04:54:24.044Z,24.98
2019-05-10T04:56:53.711Z,23.40
2019-05-10T04:59:23.285Z,23.50
2019-05-10T05:01:52.876Z,22.70
2019-05-10T05:04:22.432Z,21.95
2019-05-10T05:06:51.995Z,24.07
2019-05-10T05:09:21.607Z,23.87
2019-05-10T05:11:51.154Z,23.55
2019-05-10T05:14:20.814Z,21.95
2019-05-10T05:16:50.411Z,22.75
2019-05-10T05:19:20.028Z,23.87
2019-05-10T05:21:49.654Z,22.70
2019-05-10T05:24:23.000Z,18.90
2019-05-10T05:26:51.390Z,20.32
2019-05-10T05:29:20.922Z,15.80
2019-05-10T05:31:53.999Z,18.35
2019-05-10T05:34:21.697Z,20.40
2019-05-10T05:36:51.300Z,19.62
2019-05-10T05:39:20.920Z,19.50
2019-05-10T05:41:52.187Z,17.77
2019-05-10T05:44:26.077Z,19.57
2019-05-10T05:46:53.049Z,16.80
2019-05-10T05:49:22.624Z,16.77
2019-05-10T05:51:52.219Z,18.48
2019-05-10T05:54:22.665Z,19.05
2019-05-10T05:56:53.127Z,17.67
2019-05-10T05:59:26.188Z,17.75
2019-05-10T06:01:54.135Z,17.40
2019-05-10T06:04:23.743Z,18.00
2019-05-10T06:06:53.613Z,17.70
2019-05-10T06:11:53.467Z,18.52
2019-05-10T06:14:23.202Z,18.20
2019-05-10T06:16:53.097Z,18.30
2019-05-10T06:19:29.462Z,17.25
2019-05-10T06:21:57.876Z,18.25
2019-05-10T06:26:58.217Z,14.70
2019-05-10T06:31:54.382Z,17.35
2019-05-10T06:34:23.950Z,19.50
2019-05-10T06:36:53.615Z,18.82
2019-05-10T06:39:23.060Z,19.92
2019-05-10T06:41:56.194Z,18.12
2019-05-10T06:44:24.944Z,16.35
2019-05-10T06:46:55.059Z,15.68
2019-05-10T06:49:24.696Z,17.00
2019-05-10T06:51:54.374Z,16.73
2019-05-10T06:54:24.227Z,15.55
2019-05-10T06:56:53.875Z,17.20
2019-05-10T06:59:24.912Z,19.05
2019-05-10T07:01:54.974Z,19.65
2019-05-10T07:04:24.672Z,16.73
2019-05-10T07:06:54.801Z,15.55
2019-05-10T07:09:24.312Z,17.25
2019-05-10T07:11:53.902Z,18.07
2019-05-10T07:14:27.157Z,17.52
2019-05-10T07:19:28.611Z,17.12
2019-05-10T07:24:27.092Z,21.30
2019-05-10T07:29:29.963Z,18.25
2019-05-10T07:31:58.597Z,19.10
2019-05-10T07:34:28.202Z,18.73
2019-05-10T07:37:01.703Z,17.10
2019-05-10T07:42:00.490Z,16.50
2019-05-10T07:44:30.223Z,17.02
2019-05-10T07:46:59.892Z,19.02
2019-05-10T07:49:32.329Z,17.50
2019-05-10T07:54:31.294Z,17.92
2019-05-10T07:57:01.093Z,18.23
2019-05-10T07:59:37.091Z,18.40
2019-05-10T08:04:33.534Z,19.15
2019-05-10T08:07:07.169Z,18.75
2019-05-10T08:09:37.238Z,17.77
2019-05-10T08:14:35.258Z,19.20
2019-05-10T08:17:06.339Z,17.52
2019-05-10T08:22:09.237Z,18.23
2019-05-10T08:24:38.246Z,18.85
2019-05-10T08:27:12.398Z,15.78
2019-05-10T08:32:08.035Z,14.78
2019-05-10T08:34:39.409Z,17.10
2019-05-10T08:39:45.652Z,15.63
2019-05-10T08:42:32.144Z,16.12
2019-05-10T08:44:42.768Z,13.85
2019-05-10T08:47:20.675Z,14.60
2019-05-10T08:52:14.251Z,14.90
2019-05-10T08:54:43.804Z,16.00
2019-05-10T08:57:18.533Z,15.53
2019-05-10T08:59:44.838Z,15.68
2019-05-10T09:02:14.634Z,16.17
2019-05-10T09:04:49.905Z,16.90
2019-05-10T09:07:15.583Z,14.63
2019-05-10T09:09:49.701Z,14.93
2019-05-10T09:14:48.461Z,15.28
2019-05-10T09:17:23.568Z,15.30
2019-05-10T09:19:47.845Z,15.55
2019-05-10T09:22:17.519Z,12.88
2019-05-10T09:24:48.970Z,12.28
2019-05-10T09:27:18.784Z,13.30
2019-05-10T09:29:48.535Z,12.85
2019-05-10T09:32:23.404Z,11.83
2019-05-10T09:34:54.055Z,11.65
2019-05-10T09:37:22.810Z,11.60
2019-05-10T09:40:04.229Z,11.30
2019-05-10T09:42:26.523Z,10.93
2019-05-10T09:44:55.444Z,10.65
2019-05-10T09:47:25.179Z,9.20
2019-05-10T09:49:58.823Z,9.58
2019-05-10T09:52:26.386Z,10.78
2019-05-10T09:54:56.965Z,10.32
2019-05-10T09:57:32.100Z,9.55
2019-05-10T10:00:01.513Z,9.43
2019-05-10T10:02:33.798Z,9.43
2019-05-10T10:05:02.665Z,9.70
2019-05-10T10:07:33.590Z,10.45
2019-05-10T10:10:07.388Z,9.75
2019-05-10T10:12:37.422Z,10.05
2019-05-10T10:15:09.568Z,9.20
2019-05-10T10:17:42.398Z,8.68
2019-05-10T10:22:38.836Z,6.15
2019-05-10T10:25:10.090Z,6.85
2019-05-10T10:27:47.901Z,6.62
2019-05-10T10:30:21.497Z,6.72
2019-05-10T10:32:50.503Z,7.47
2019-05-10T10:35:26.584Z,7.47
2019-05-10T10:37:52.042Z,6.28
2019-05-10T10:40:21.835Z,6.40
2019-05-10T10:42:53.384Z,6.03
2019-05-10T10:45:23.055Z,5.95
2019-05-10T10:47:57.298Z,5.75
2019-05-10T10:50:27.520Z,5.12
2019-05-10T10:52:57.576Z,5.65
2019-05-10T10:55:34.767Z,4.62
2019-05-10T10:58:01.364Z,4.37
2019-05-10T11:00:33.269Z,5.05
2019-05-10T11:03:04.176Z,4.67
2019-05-10T11:05:34.051Z,5.97
2019-05-10T11:08:03.733Z,5.33
2019-05-10T11:10:33.491Z,5.35
2019-05-10T11:13:11.981Z,4.85
2019-05-10T11:15:41.994Z,4.20
2019-05-10T11:18:12.644Z,3.95
2019-05-10T11:20:49.536Z,3.55
2019-05-10T11:23:16.239Z,3.40
2019-05-10T11:28:15.852Z,3.77
2019-05-10T11:30:45.722Z,4.10
2019-05-10T11:33:26.010Z,4.22
2019-05-10T11:35:51.408Z,3.25
2019-05-10T11:38:21.493Z,3.52
2019-05-10T11:40:51.281Z,3.47
2019-05-10T11:43:26.804Z,3.50
2019-05-10T11:45:54.327Z,3.72
2019-05-10T11:48:28.957Z,4.40
2019-05-10T11:50:55.357Z,4.15
2019-05-10T11:53:25.177Z,3.50
2019-05-10T11:55:54.868Z,3.35
2019-05-10T11:58:25.640Z,3.75
2019-05-10T12:01:00.365Z,3.70
2019-05-10T12:03:35.106Z,3.65
2019-05-10T12:08:41.548Z,3.08
2019-05-10T12:11:25.398Z,2.70
2019-05-10T12:13:42.480Z,2.60
2019-05-10T12:16:16.795Z,2.70
2019-05-10T12:23:50.651Z,2.40
2019-05-10T12:26:18.785Z,3.12
2019-05-10T12:26:50.371Z,2.92
2019-05-10T12:28:51.011Z,3.05
2019-05-10T12:31:23.216Z,3.10
2019-05-10T12:33:52.956Z,2.33
2019-05-10T12:36:27.692Z,2.70
2019-05-10T12:38:58.968Z,2.40
2019-05-10T12:44:03.307Z,2.67
2019-05-10T12:46:30.720Z,2.60
2019-05-10T12:49:04.582Z,2.55
2019-05-10T12:51:32.725Z,2.42
2019-05-10T12:54:02.463Z,2.60
2019-05-10T12:56:35.050Z,2.47
2019-05-10T12:59:03.574Z,3.00
2019-05-10T13:01:33.341Z,2.60
2019-05-10T13:04:13.433Z,2.80
2019-05-10T13:09:04.563Z,2.90
2019-05-10T13:14:07.330Z,2.90
2019-05-10T13:19:04.328Z,1.72
2019-05-10T13:21:34.057Z,1.62
2019-05-10T13:24:03.926Z,2.27
2019-05-10T13:26:33.537Z,1.40
2019-05-10T13:29:07.911Z,2.80
2019-05-10T13:31:41.745Z,3.20
2019-05-10T13:34:05.820Z,2.50
2019-05-10T13:36:37.670Z,2.33
2019-05-10T13:39:09.124Z,2.67
2019-05-10T13:41:38.850Z,2.50
2019-05-10T13:44:08.389Z,2.58
2019-05-10T13:46:38.218Z,2.67
2019-05-10T13:49:07.946Z,2.17
2019-05-10T13:51:37.625Z,2.75
2019-05-10T13:54:07.323Z,2.00
2019-05-10T13:56:37.043Z,2.15
2019-05-10T13:59:15.844Z,1.60
2019-05-10T14:01:38.180Z,1.67
2019-05-10T14:04:07.682Z,1.70
2019-05-10T14:06:37.396Z,1.42
2019-05-10T14:09:07.966Z,1.27
2019-05-10T14:11:40.381Z,1.30
2019-05-10T14:14:14.666Z,1.65
2019-05-10T14:16:40.413Z,1.62
2019-05-10T14:19:10.294Z,2.08
2019-05-10T14:21:39.997Z,1.67
2019-05-10T14:24:15.270Z,1.80
2019-05-10T14:26:41.063Z,1.80
2019-05-10T14:29:11.310Z,1.37
2019-05-10T14:31:41.138Z,1.22
2019-05-10T14:34:15.584Z,1.67
2019-05-10T14:36:43.536Z,3.52
2019-05-10T14:39:16.099Z,4.28
2019-05-10T14:41:51.048Z,3.17
2019-05-10T14:44:17.177Z,2.62
2019-05-10T14:46:46.859Z,11.70
2019-05-10T14:49:16.372Z,3.77
2019-05-10T14:51:58.266Z,6.70
2019-05-10T14:54:17.310Z,2.70
2019-05-10T14:56:47.090Z,1.87
2019-05-10T15:01:46.661Z,1.75
2019-05-10T15:04:20.104Z,4.87
2019-05-10T15:06:47.983Z,2.00
2019-05-10T15:09:21.710Z,2.37
2019-05-10T15:11:48.787Z,3.60
2019-05-10T15:14:18.448Z,1.98
2019-05-10T15:16:48.182Z,1.85
2019-05-10T15:19:18.079Z,1.90
2019-05-10T15:21:47.919Z,3.12
2019-05-10T15:24:17.704Z,10.90
2019-05-10T15:26:47.318Z,2.17
2019-05-10T15:29:22.345Z,1.90
2019-05-10T15:31:49.466Z,1.72
2019-05-10T15:34:19.354Z,2.37
2019-05-10T15:36:48.997Z,1.40
2019-05-10T15:39:23.194Z,1.47
2019-05-10T15:41:53.677Z,1.95
2019-05-10T15:44:30.433Z,1.42
2019-05-10T15:46:53.291Z,2.70
2019-05-10T15:49:24.459Z,1.60
2019-05-10T15:51:56.887Z,1.77
2019-05-10T15:54:25.517Z,1.92
2019-05-10T15:56:56.221Z,2.12
2019-05-10T15:59:25.752Z,1.90
2019-05-10T16:01:55.560Z,1.90
2019-05-10T16:04:25.266Z,2.17
2019-05-10T16:06:55.183Z,1.62
2019-05-10T16:09:24.861Z,1.80
2019-05-10T16:11:55.929Z,2.10
2019-05-10T16:14:26.512Z,2.27
2019-05-10T16:16:57.274Z,1.67
2019-05-10T16:19:27.172Z,1.82
2019-05-10T16:21:58.236Z,1.85
2019-05-10T16:27:00.080Z,1.90
2019-05-10T16:29:33.763Z,1.90
2019-05-10T16:32:02.745Z,2.02
2019-05-10T16:34:34.204Z,2.40
2019-05-10T16:37:03.937Z,1.80
2019-05-10T16:39:33.636Z,1.47
2019-05-10T16:42:03.418Z,1.85
2019-05-10T16:44:32.965Z,1.82
2019-05-10T16:47:02.596Z,2.00
2019-05-10T16:49:32.310Z,2.15
2019-05-10T16:52:01.959Z,2.40
2019-05-10T16:54:31.647Z,2.02
2019-05-10T16:57:01.791Z,1.90
2019-05-10T16:59:35.015Z,2.22
2019-05-10T17:02:06.731Z,2.60
2019-05-10T17:04:39.654Z,1.92
2019-05-10T17:07:12.943Z,2.40
2019-05-10T17:09:39.992Z,2.60
2019-05-10T17:12:09.716Z,2.60
2019-05-10T17:14:39.513Z,2.37
2019-05-10T17:17:09.870Z,2.05
2019-05-10T17:19:39.646Z,2.33
2019-05-10T17:22:09.347Z,2.15
2019-05-10T17:24:39.116Z,2.60
2019-05-10T17:27:09.861Z,4.03
2019-05-10T17:29:39.619Z,3.05
2019-05-10T17:32:09.321Z,2.60
2019-05-10T17:34:39.073Z,2.58
2019-05-10T17:37:09.015Z,1.92
2019-05-10T17:39:38.733Z,2.92
2019-05-10T17:42:08.512Z,2.42
2019-05-10T17:44:38.117Z,2.20
2019-05-10T17:47:07.917Z,2.15
2019-05-10T17:49:37.921Z,3.17
2019-05-10T17:52:07.711Z,2.40
2019-05-10T17:54:39.351Z,2.85
2019-05-10T17:57:10.539Z,3.05
2019-05-10T17:59:40.341Z,2.60
2019-05-10T18:02:10.447Z,2.83
2019-05-10T18:04:43.439Z,3.70
2019-05-10T18:07:13.162Z,3.70
2019-05-10T18:09:45.998Z,4.55
2019-05-10T18:12:20.328Z,3.95
2019-05-10T18:14:55.821Z,3.65
2019-05-10T18:17:32.448Z,4.10
2019-05-10T18:20:03.829Z,4.22
2019-05-10T18:25:05.479Z,3.75
2019-05-10T18:27:35.613Z,3.20
2019-05-10T18:30:07.223Z,3.27
2019-05-10T18:32:37.250Z,3.10
2019-05-10T18:35:14.705Z,3.35
2019-05-10T18:37:39.530Z,2.65
2019-05-10T18:40:09.647Z,2.70
2019-05-10T18:42:39.327Z,3.05
2019-05-10T18:45:09.125Z,3.30
2019-05-10T18:47:38.924Z,2.58
2019-05-10T18:50:09.037Z,3.25
2019-05-10T18:52:38.767Z,3.47
2019-05-10T18:55:08.670Z,3.17
2019-05-10T18:57:38.434Z,3.95
2019-05-10T19:00:08.945Z,4.58
2019-05-10T19:02:38.760Z,2.80
2019-05-10T19:05:08.845Z,3.98
2019-05-10T19:07:38.823Z,5.33
2019-05-10T19:10:09.086Z,7.25
2019-05-10T19:12:39.020Z,6.33
2019-05-10T19:15:15.144Z,6.10
2019-05-10T19:17:45.982Z,6.30
2019-05-10T19:22:43.001Z,5.22
2019-05-10T19:25:14.492Z,5.03
2019-05-10T19:27:50.237Z,5.33
2019-05-10T19:32:51.201Z,4.08
2019-05-10T19:35:17.280Z,4.97
2019-05-10T19:37:48.057Z,4.70
2019-05-10T19:40:17.874Z,4.87
2019-05-10T19:42:49.565Z,4.97
2019-05-10T19:47:49.807Z,5.55
2019-05-10T19:52:51.031Z,6.70
2019-05-10T19:55:21.757Z,7.28
2019-05-10T19:57:54.784Z,7.05
2019-05-10T20:02:52.769Z,7.47
2019-05-10T20:05:22.523Z,8.28
2019-05-10T20:07:52.221Z,9.48
2019-05-10T20:10:21.827Z,9.25
2019-05-10T20:12:51.488Z,10.13
2019-05-10T20:15:21.196Z,11.68
2019-05-10T20:17:51.262Z,12.28
2019-05-10T20:20:20.952Z,13.35
2019-05-10T20:22:50.706Z,14.20
2019-05-10T20:25:20.366Z,16.02
2019-05-10T20:27:50.022Z,15.30
2019-05-10T20:30:19.894Z,13.40
2019-05-10T20:32:50.593Z,11.85
2019-05-10T20:35:20.446Z,12.90
2019-05-10T20:38:01.479Z,8.95
2019-05-10T20:40:21.399Z,8.20
2019-05-10T20:42:51.041Z,7.87
2019-05-10T20:45:20.683Z,7.28
2019-05-10T20:47:50.254Z,6.10
2019-05-10T20:50:21.494Z,5.67
2019-05-10T20:52:51.187Z,6.10
2019-05-10T20:55:20.809Z,6.28
2019-05-10T20:57:53.691Z,6.03
2019-05-10T21:00:28.547Z,7.10
2019-05-10T21:03:07.451Z,6.20
2019-05-10T21:05:39.022Z,6.70
2019-05-10T21:08:16.572Z,7.43
2019-05-10T21:10:40.348Z,6.65
2019-05-10T21:13:10.091Z,6.80
2019-05-10T21:15:39.783Z,6.15
2019-05-10T21:18:09.517Z,5.65
2019-05-10T21:20:39.210Z,7.62
2019-05-10T21:23:08.783Z,6.67
2019-05-10T21:25:38.509Z,6.03
2019-05-10T21:28:08.291Z,5.47
2019-05-10T21:30:37.966Z,6.33
2019-05-10T21:33:07.700Z,5.90
2019-05-10T21:35:37.397Z,5.80
2019-05-10T21:38:07.086Z,6.03
2019-05-10T21:40:38.571Z,5.37
2019-05-10T21:43:08.291Z,5.42
2019-05-10T21:45:38.090Z,5.47
2019-05-10T21:48:07.639Z,5.03
2019-05-10T21:50:37.379Z,5.60
2019-05-10T21:53:08.116Z,5.42
2019-05-10T21:55:37.904Z,5.37
2019-05-10T21:58:07.812Z,5.17
2019-05-10T22:00:39.158Z,5.50
2019-05-10T22:03:09.056Z,5.33
2019-05-10T22:05:39.115Z,5.75
2019-05-10T22:08:08.877Z,5.97
2019-05-10T22:10:38.580Z,6.12
2019-05-10T22:13:08.323Z,5.95
2019-05-10T22:15:38.077Z,5.97
2019-05-10T22:18:07.723Z,6.50
2019-05-10T22:20:37.728Z,6.55
2019-05-10T22:23:07.366Z,6.20
2019-05-10T22:25:37.332Z,6.05
2019-05-10T22:28:07.067Z,5.75
2019-05-10T22:30:36.765Z,6.95
2019-05-10T22:33:06.310Z,6.20
2019-05-10T22:35:35.895Z,6.62
2019-05-10T22:38:05.737Z,6.65
2019-05-10T22:40:35.348Z,6.17
2019-05-10T22:43:05.230Z,7.30
2019-05-10T22:45:34.932Z,6.67
2019-05-10T22:48:04.556Z,7.00
2019-05-10T22:50:34.144Z,6.92
2019-05-10T22:53:03.844Z,6.55
2019-05-10T22:55:33.532Z,7.90
2019-05-10T22:58:03.236Z,6.95
2019-05-10T23:00:32.920Z,7.58
2019-05-10T23:03:02.621Z,6.80
2019-05-10T23:05:32.219Z,6.90
2019-05-10T23:08:01.856Z,6.45
2019-05-10T23:10:31.487Z,5.97
2019-05-10T23:13:01.096Z,7.72
2019-05-10T23:15:30.742Z,7.25
2019-05-10T23:18:00.277Z,7.30
2019-05-10T23:20:29.960Z,8.43
2019-05-10T23:22:59.669Z,7.60
2019-05-10T23:25:29.339Z,7.65
2019-05-10T23:27:58.844Z,8.18
2019-05-10T23:30:28.477Z,7.05
2019-05-10T23:32:58.091Z,9.20
2019-05-10T23:35:27.744Z,8.98
2019-05-10T23:37:57.442Z,8.43
2019-05-10T23:40:27.023Z,8.15
2019-05-10T23:42:56.627Z,8.20
2019-05-10T23:45:26.319Z,9.13
2019-05-10T23:47:56.084Z,9.03
2019-05-10T23:50:25.639Z,8.13
2019-05-10T23:52:55.191Z,9.00
2019-05-10T23:55:24.812Z,8.75
2019-05-10T23:57:54.360Z,8.23
